sensor_id;sensor_type;location;lat;lon;timestamp;P1;durP1;ratioP1;P2;durP2;ratioP2
11771;SDS011;12556;55.748;13.194;2023-04-25T00:00:31;4.67;;;3.40;;
11771;SDS011;12556;55.748;13.194;2023-04-25T00:02:57;4.53;;;3.00;;
11771;SDS011;12556;55.748;13.194;2023-04-25T00:05:25;4.53;;;3.50;;
11771;SDS011;12556;55.748;13.194;2023-04-25T00:07:52;3.57;;;3.00;;
11771;SDS011;12556;55.748;13.194;2023-04-25T00:10:19;3.60;;;3.00;;
11771;SDS011;12556;55.748;13.194;2023-04-25T00:12:46;4.43;;;3.47;;
11771;SDS011;12556;55.748;13.194;2023-04-25T00:15:13;5.63;;;3.53;;
11771;SDS011;12556;55.748;13.194;2023-04-25T00:17:42;4.07;;;3.47;;
11771;SDS011;12556;55.748;13.194;2023-04-25T00:20:11;5.60;;;3.57;;
11771;SDS011;12556;55.748;13.194;2023-04-25T00:22:38;4.60;;;3.83;;
11771;SDS011;12556;55.748;13.194;2023-04-25T00:25:05;6.30;;;4.00;;
11771;SDS011;12556;55.748;13.194;2023-04-25T00:27:33;6.60;;;4.20;;
11771;SDS011;12556;55.748;13.194;2023-04-25T00:30:00;6.17;;;3.73;;
11771;SDS011;12556;55.748;13.194;2023-04-25T00:32:27;7.80;;;4.53;;
11771;SDS011;12556;55.748;13.194;2023-04-25T00:34:55;7.10;;;4.17;;
11771;SDS011;12556;55.748;13.194;2023-04-25T00:37:23;4.80;;;3.67;;
11771;SDS011;12556;55.748;13.194;2023-04-25T00:39:50;5.67;;;3.43;;
11771;SDS011;12556;55.748;13.194;2023-04-25T00:42:18;5.70;;;3.37;;
11771;SDS011;12556;55.748;13.194;2023-04-25T00:44:45;5.67;;;4.17;;
11771;SDS011;12556;55.748;13.194;2023-04-25T00:47:13;3.97;;;3.53;;
11771;SDS011;12556;55.748;13.194;2023-04-25T00:49:41;4.13;;;2.73;;
11771;SDS011;12556;55.748;13.194;2023-04-25T00:52:10;5.40;;;3.50;;
11771;SDS011;12556;55.748;13.194;2023-04-25T00:54:37;5.20;;;3.00;;
11771;SDS011;12556;55.748;13.194;2023-04-25T00:57:04;3.90;;;2.97;;
11771;SDS011;12556;55.748;13.194;2023-04-25T00:59:31;4.17;;;3.13;;
11771;SDS011;12556;55.748;13.194;2023-04-25T01:01:59;4.70;;;2.90;;
11771;SDS011;12556;55.748;13.194;2023-04-25T01:04:26;4.57;;;2.63;;
11771;SDS011;12556;55.748;13.194;2023-04-25T01:06:54;4.47;;;2.90;;
11771;SDS011;12556;55.748;13.194;2023-04-25T01:09:22;5.03;;;2.63;;
11771;SDS011;12556;55.748;13.194;2023-04-25T01:11:50;4.00;;;3.10;;
11771;SDS011;12556;55.748;13.194;2023-04-25T01:14:17;4.37;;;2.73;;
11771;SDS011;12556;55.748;13.194;2023-04-25T01:16:44;3.20;;;2.90;;
11771;SDS011;12556;55.748;13.194;2023-04-25T01:19:11;5.10;;;2.83;;
11771;SDS011;12556;55.748;13.194;2023-04-25T01:21:41;3.93;;;2.40;;
11771;SDS011;12556;55.748;13.194;2023-04-25T01:24:08;4.03;;;2.63;;
11771;SDS011;12556;55.748;13.194;2023-04-25T01:26:36;5.33;;;2.87;;
11771;SDS011;12556;55.748;13.194;2023-04-25T01:29:03;5.20;;;2.83;;
11771;SDS011;12556;55.748;13.194;2023-04-25T01:31:30;3.20;;;2.60;;
11771;SDS011;12556;55.748;13.194;2023-04-25T01:33:59;5.73;;;2.60;;
11771;SDS011;12556;55.748;13.194;2023-04-25T01:36:26;3.27;;;2.97;;
11771;SDS011;12556;55.748;13.194;2023-04-25T01:38:55;3.90;;;2.70;;
11771;SDS011;12556;55.748;13.194;2023-04-25T01:41:22;6.73;;;3.10;;
11771;SDS011;12556;55.748;13.194;2023-04-25T01:43:49;5.87;;;3.23;;
11771;SDS011;12556;55.748;13.194;2023-04-25T01:46:16;3.83;;;3.50;;
11771;SDS011;12556;55.748;13.194;2023-04-25T01:48:43;2.87;;;2.60;;
11771;SDS011;12556;55.748;13.194;2023-04-25T01:51:10;5.40;;;2.83;;
11771;SDS011;12556;55.748;13.194;2023-04-25T01:53:37;3.63;;;2.70;;
11771;SDS011;12556;55.748;13.194;2023-04-25T01:56:06;3.33;;;2.57;;
11771;SDS011;12556;55.748;13.194;2023-04-25T01:58:33;5.70;;;3.03;;
11771;SDS011;12556;55.748;13.194;2023-04-25T02:01:00;4.70;;;2.73;;
11771;SDS011;12556;55.748;13.194;2023-04-25T02:03:27;3.30;;;2.60;;
11771;SDS011;12556;55.748;13.194;2023-04-25T02:05:55;4.90;;;2.50;;
11771;SDS011;12556;55.748;13.194;2023-04-25T02:08:22;4.90;;;3.10;;
11771;SDS011;12556;55.748;13.194;2023-04-25T02:10:51;4.80;;;2.93;;
11771;SDS011;12556;55.748;13.194;2023-04-25T02:13:19;5.53;;;2.97;;
11771;SDS011;12556;55.748;13.194;2023-04-25T02:15:46;4.07;;;2.57;;
11771;SDS011;12556;55.748;13.194;2023-04-25T02:18:13;3.37;;;2.77;;
11771;SDS011;12556;55.748;13.194;2023-04-25T02:20:41;4.97;;;2.40;;
11771;SDS011;12556;55.748;13.194;2023-04-25T02:23:08;3.27;;;2.37;;
11771;SDS011;12556;55.748;13.194;2023-04-25T02:25:35;4.33;;;2.20;;
11771;SDS011;12556;55.748;13.194;2023-04-25T02:28:02;4.27;;;2.47;;
11771;SDS011;12556;55.748;13.194;2023-04-25T02:30:30;4.27;;;2.30;;
11771;SDS011;12556;55.748;13.194;2023-04-25T02:32:57;2.97;;;1.97;;
11771;SDS011;12556;55.748;13.194;2023-04-25T02:35:24;4.80;;;2.13;;
11771;SDS011;12556;55.748;13.194;2023-04-25T02:37:51;4.13;;;2.40;;
11771;SDS011;12556;55.748;13.194;2023-04-25T02:40:18;2.60;;;1.90;;
11771;SDS011;12556;55.748;13.194;2023-04-25T02:42:45;2.37;;;1.90;;
11771;SDS011;12556;55.748;13.194;2023-04-25T02:45:13;2.63;;;2.43;;
11771;SDS011;12556;55.748;13.194;2023-04-25T02:47:41;4.27;;;2.37;;
11771;SDS011;12556;55.748;13.194;2023-04-25T02:50:08;4.50;;;2.50;;
11771;SDS011;12556;55.748;13.194;2023-04-25T02:52:36;2.67;;;2.40;;
11771;SDS011;12556;55.748;13.194;2023-04-25T02:55:03;7.17;;;2.90;;
11771;SDS011;12556;55.748;13.194;2023-04-25T02:57:30;5.50;;;2.63;;
11771;SDS011;12556;55.748;13.194;2023-04-25T02:59:57;5.17;;;2.67;;
11771;SDS011;12556;55.748;13.194;2023-04-25T03:02:24;5.60;;;2.27;;
11771;SDS011;12556;55.748;13.194;2023-04-25T03:04:52;3.33;;;2.13;;
11771;SDS011;12556;55.748;13.194;2023-04-25T03:07:19;5.90;;;2.43;;
11771;SDS011;12556;55.748;13.194;2023-04-25T03:09:46;4.67;;;2.77;;
11771;SDS011;12556;55.748;13.194;2023-04-25T03:12:13;2.63;;;2.40;;
11771;SDS011;12556;55.748;13.194;2023-04-25T03:14:40;7.47;;;3.30;;
11771;SDS011;12556;55.748;13.194;2023-04-25T03:17:06;3.73;;;2.40;;
11771;SDS011;12556;55.748;13.194;2023-04-25T03:19:33;3.27;;;2.53;;
11771;SDS011;12556;55.748;13.194;2023-04-25T03:22:02;5.27;;;2.70;;
11771;SDS011;12556;55.748;13.194;2023-04-25T03:24:29;4.67;;;2.23;;
11771;SDS011;12556;55.748;13.194;2023-04-25T03:26:55;7.43;;;2.90;;
11771;SDS011;12556;55.748;13.194;2023-04-25T03:29:22;3.87;;;2.43;;
11771;SDS011;12556;55.748;13.194;2023-04-25T03:31:51;6.67;;;2.77;;
11771;SDS011;12556;55.748;13.194;2023-04-25T03:34:18;5.83;;;2.70;;
11771;SDS011;12556;55.748;13.194;2023-04-25T03:36:46;8.93;;;2.60;;
11771;SDS011;12556;55.748;13.194;2023-04-25T03:39:14;4.90;;;2.57;;
11771;SDS011;12556;55.748;13.194;2023-04-25T03:41:41;8.20;;;3.00;;
11771;SDS011;12556;55.748;13.194;2023-04-25T03:44:08;6.60;;;2.43;;
11771;SDS011;12556;55.748;13.194;2023-04-25T03:46:35;5.50;;;2.53;;
11771;SDS011;12556;55.748;13.194;2023-04-25T03:49:02;7.87;;;2.97;;
11771;SDS011;12556;55.748;13.194;2023-04-25T03:51:29;5.17;;;2.80;;
11771;SDS011;12556;55.748;13.194;2023-04-25T03:53:56;4.93;;;2.77;;
11771;SDS011;12556;55.748;13.194;2023-04-25T03:56:24;6.40;;;2.80;;
11771;SDS011;12556;55.748;13.194;2023-04-25T03:58:51;6.73;;;3.33;;
11771;SDS011;12556;55.748;13.194;2023-04-25T04:01:18;7.10;;;2.53;;
11771;SDS011;12556;55.748;13.194;2023-04-25T04:03:45;5.77;;;3.00;;
11771;SDS011;12556;55.748;13.194;2023-04-25T04:06:12;5.97;;;2.60;;
11771;SDS011;12556;55.748;13.194;2023-04-25T04:08:40;6.00;;;2.80;;
11771;SDS011;12556;55.748;13.194;2023-04-25T04:11:07;5.87;;;2.70;;
11771;SDS011;12556;55.748;13.194;2023-04-25T04:13:35;4.60;;;3.10;;
11771;SDS011;12556;55.748;13.194;2023-04-25T04:16:02;4.50;;;2.90;;
11771;SDS011;12556;55.748;13.194;2023-04-25T04:18:30;7.30;;;3.20;;
11771;SDS011;12556;55.748;13.194;2023-04-25T04:20:58;4.93;;;2.70;;
11771;SDS011;12556;55.748;13.194;2023-04-25T04:23:25;12.33;;;3.07;;
11771;SDS011;12556;55.748;13.194;2023-04-25T04:25:53;9.43;;;3.43;;
11771;SDS011;12556;55.748;13.194;2023-04-25T04:28:21;7.13;;;3.07;;
11771;SDS011;12556;55.748;13.194;2023-04-25T04:30:50;4.37;;;3.13;;
11771;SDS011;12556;55.748;13.194;2023-04-25T04:33:17;4.77;;;3.20;;
11771;SDS011;12556;55.748;13.194;2023-04-25T04:35:45;4.10;;;2.67;;
11771;SDS011;12556;55.748;13.194;2023-04-25T04:38:13;4.27;;;2.97;;
11771;SDS011;12556;55.748;13.194;2023-04-25T04:40:41;3.77;;;2.73;;
11771;SDS011;12556;55.748;13.194;2023-04-25T04:43:08;6.57;;;2.70;;
11771;SDS011;12556;55.748;13.194;2023-04-25T04:45:35;7.23;;;3.30;;
11771;SDS011;12556;55.748;13.194;2023-04-25T04:48:05;5.03;;;2.70;;
11771;SDS011;12556;55.748;13.194;2023-04-25T04:50:32;6.63;;;3.37;;
11771;SDS011;12556;55.748;13.194;2023-04-25T04:52:59;6.00;;;2.43;;
11771;SDS011;12556;55.748;13.194;2023-04-25T04:55:26;12.73;;;4.07;;
11771;SDS011;12556;55.748;13.194;2023-04-25T04:57:52;9.60;;;4.10;;
11771;SDS011;12556;55.748;13.194;2023-04-25T05:00:20;7.57;;;3.77;;
11771;SDS011;12556;55.748;13.194;2023-04-25T05:02:46;8.23;;;4.27;;
11771;SDS011;12556;55.748;13.194;2023-04-25T05:05:15;9.23;;;4.43;;
11771;SDS011;12556;55.748;13.194;2023-04-25T05:07:42;13.00;;;4.80;;
11771;SDS011;12556;55.748;13.194;2023-04-25T05:10:09;6.93;;;4.27;;
11771;SDS011;12556;55.748;13.194;2023-04-25T05:12:36;7.77;;;4.93;;
11771;SDS011;12556;55.748;13.194;2023-04-25T05:15:03;7.17;;;4.57;;
11771;SDS011;12556;55.748;13.194;2023-04-25T05:17:30;11.30;;;4.57;;
11771;SDS011;12556;55.748;13.194;2023-04-25T05:19:57;10.37;;;4.47;;
11771;SDS011;12556;55.748;13.194;2023-04-25T05:22:26;7.43;;;3.70;;
11771;SDS011;12556;55.748;13.194;2023-04-25T05:24:53;11.20;;;3.80;;
11771;SDS011;12556;55.748;13.194;2023-04-25T05:27:20;8.60;;;4.33;;
11771;SDS011;12556;55.748;13.194;2023-04-25T05:29:47;8.53;;;3.93;;
11771;SDS011;12556;55.748;13.194;2023-04-25T05:32:13;8.40;;;4.07;;
11771;SDS011;12556;55.748;13.194;2023-04-25T05:34:40;10.67;;;3.47;;
11771;SDS011;12556;55.748;13.194;2023-04-25T05:37:08;9.83;;;4.40;;
11771;SDS011;12556;55.748;13.194;2023-04-25T05:39:36;10.23;;;3.63;;
11771;SDS011;12556;55.748;13.194;2023-04-25T05:42:03;12.13;;;3.70;;
11771;SDS011;12556;55.748;13.194;2023-04-25T05:44:30;13.83;;;4.33;;
11771;SDS011;12556;55.748;13.194;2023-04-25T05:46:57;10.17;;;4.10;;
11771;SDS011;12556;55.748;13.194;2023-04-25T05:49:24;10.30;;;4.10;;
11771;SDS011;12556;55.748;13.194;2023-04-25T05:51:51;10.30;;;4.67;;
11771;SDS011;12556;55.748;13.194;2023-04-25T05:54:18;8.07;;;3.80;;
11771;SDS011;12556;55.748;13.194;2023-04-25T05:56:46;11.90;;;4.80;;
11771;SDS011;12556;55.748;13.194;2023-04-25T05:59:13;7.80;;;3.83;;
11771;SDS011;12556;55.748;13.194;2023-04-25T06:01:40;6.57;;;4.23;;
11771;SDS011;12556;55.748;13.194;2023-04-25T06:04:07;9.67;;;4.43;;
11771;SDS011;12556;55.748;13.194;2023-04-25T06:06:35;12.23;;;4.63;;
11771;SDS011;12556;55.748;13.194;2023-04-25T06:09:01;10.97;;;4.37;;
11771;SDS011;12556;55.748;13.194;2023-04-25T06:11:28;8.63;;;4.83;;
11771;SDS011;12556;55.748;13.194;2023-04-25T06:13:57;10.97;;;5.00;;
11771;SDS011;12556;55.748;13.194;2023-04-25T06:16:24;13.63;;;5.10;;
11771;SDS011;12556;55.748;13.194;2023-04-25T06:18:50;12.23;;;5.00;;
11771;SDS011;12556;55.748;13.194;2023-04-25T06:21:18;9.53;;;4.10;;
11771;SDS011;12556;55.748;13.194;2023-04-25T06:23:44;10.07;;;4.40;;
11771;SDS011;12556;55.748;13.194;2023-04-25T06:26:11;8.50;;;4.57;;
11771;SDS011;12556;55.748;13.194;2023-04-25T06:28:38;11.77;;;5.50;;
11771;SDS011;12556;55.748;13.194;2023-04-25T06:31:07;9.03;;;4.60;;
11771;SDS011;12556;55.748;13.194;2023-04-25T06:33:34;13.77;;;5.37;;
11771;SDS011;12556;55.748;13.194;2023-04-25T06:36:01;11.73;;;4.50;;
11771;SDS011;12556;55.748;13.194;2023-04-25T06:38:28;12.67;;;4.80;;
11771;SDS011;12556;55.748;13.194;2023-04-25T06:40:55;11.07;;;4.70;;
11771;SDS011;12556;55.748;13.194;2023-04-25T06:43:22;12.53;;;4.93;;
11771;SDS011;12556;55.748;13.194;2023-04-25T06:45:48;9.67;;;4.30;;
11771;SDS011;12556;55.748;13.194;2023-04-25T06:48:17;12.37;;;5.20;;
11771;SDS011;12556;55.748;13.194;2023-04-25T06:50:44;11.47;;;4.80;;
11771;SDS011;12556;55.748;13.194;2023-04-25T06:53:10;12.20;;;5.10;;
11771;SDS011;12556;55.748;13.194;2023-04-25T06:55:37;20.10;;;5.93;;
11771;SDS011;12556;55.748;13.194;2023-04-25T06:58:05;11.40;;;4.77;;
11771;SDS011;12556;55.748;13.194;2023-04-25T07:00:32;9.80;;;4.73;;
11771;SDS011;12556;55.748;13.194;2023-04-25T07:02:59;9.20;;;4.47;;
11771;SDS011;12556;55.748;13.194;2023-04-25T07:05:28;14.23;;;6.00;;
11771;SDS011;12556;55.748;13.194;2023-04-25T07:07:55;11.53;;;4.33;;
11771;SDS011;12556;55.748;13.194;2023-04-25T07:10:22;7.23;;;4.33;;
11771;SDS011;12556;55.748;13.194;2023-04-25T07:12:50;15.20;;;5.30;;
11771;SDS011;12556;55.748;13.194;2023-04-25T07:15:17;14.70;;;5.53;;
11771;SDS011;12556;55.748;13.194;2023-04-25T07:17:44;14.93;;;5.17;;
11771;SDS011;12556;55.748;13.194;2023-04-25T07:20:11;12.80;;;4.13;;
11771;SDS011;12556;55.748;13.194;2023-04-25T07:22:39;10.50;;;4.33;;
11771;SDS011;12556;55.748;13.194;2023-04-25T07:25:06;15.37;;;4.43;;
11771;SDS011;12556;55.748;13.194;2023-04-25T07:27:34;13.53;;;5.53;;
11771;SDS011;12556;55.748;13.194;2023-04-25T07:30:01;11.50;;;5.07;;
11771;SDS011;12556;55.748;13.194;2023-04-25T07:32:29;12.60;;;5.40;;
11771;SDS011;12556;55.748;13.194;2023-04-25T07:34:56;14.60;;;5.10;;
11771;SDS011;12556;55.748;13.194;2023-04-25T07:37:23;15.37;;;5.07;;
11771;SDS011;12556;55.748;13.194;2023-04-25T07:39:51;16.33;;;5.37;;
11771;SDS011;12556;55.748;13.194;2023-04-25T07:42:18;14.93;;;5.47;;
11771;SDS011;12556;55.748;13.194;2023-04-25T07:44:46;16.00;;;5.40;;
11771;SDS011;12556;55.748;13.194;2023-04-25T07:47:13;18.47;;;6.77;;
11771;SDS011;12556;55.748;13.194;2023-04-25T07:49:40;19.37;;;6.57;;
11771;SDS011;12556;55.748;13.194;2023-04-25T07:52:07;15.83;;;5.80;;
11771;SDS011;12556;55.748;13.194;2023-04-25T07:54:34;20.70;;;6.07;;
11771;SDS011;12556;55.748;13.194;2023-04-25T07:57:02;20.67;;;6.43;;
11771;SDS011;12556;55.748;13.194;2023-04-25T07:59:31;16.33;;;5.80;;
11771;SDS011;12556;55.748;13.194;2023-04-25T08:01:58;19.17;;;5.97;;
11771;SDS011;12556;55.748;13.194;2023-04-25T08:04:25;17.53;;;5.53;;
11771;SDS011;12556;55.748;13.194;2023-04-25T08:06:52;19.17;;;6.53;;
11771;SDS011;12556;55.748;13.194;2023-04-25T08:09:19;15.60;;;5.53;;
11771;SDS011;12556;55.748;13.194;2023-04-25T08:11:47;11.27;;;5.43;;
11771;SDS011;12556;55.748;13.194;2023-04-25T08:14:16;20.40;;;6.33;;
11771;SDS011;12556;55.748;13.194;2023-04-25T08:16:42;16.00;;;6.10;;
11771;SDS011;12556;55.748;13.194;2023-04-25T08:19:10;18.13;;;6.47;;
11771;SDS011;12556;55.748;13.194;2023-04-25T08:21:37;14.53;;;5.47;;
11771;SDS011;12556;55.748;13.194;2023-04-25T08:24:04;14.40;;;5.90;;
11771;SDS011;12556;55.748;13.194;2023-04-25T08:26:31;14.10;;;5.43;;
11771;SDS011;12556;55.748;13.194;2023-04-25T08:28:58;16.53;;;6.13;;
11771;SDS011;12556;55.748;13.194;2023-04-25T08:31:26;19.90;;;5.50;;
11771;SDS011;12556;55.748;13.194;2023-04-25T08:33:53;16.43;;;5.80;;
11771;SDS011;12556;55.748;13.194;2023-04-25T08:36:20;17.23;;;5.47;;
11771;SDS011;12556;55.748;13.194;2023-04-25T08:38:47;17.23;;;5.33;;
11771;SDS011;12556;55.748;13.194;2023-04-25T08:41:14;21.30;;;5.87;;
11771;SDS011;12556;55.748;13.194;2023-04-25T08:43:42;13.20;;;4.87;;
11771;SDS011;12556;55.748;13.194;2023-04-25T08:46:10;14.93;;;5.93;;
11771;SDS011;12556;55.748;13.194;2023-04-25T08:48:40;13.93;;;5.37;;
11771;SDS011;12556;55.748;13.194;2023-04-25T08:51:08;22.53;;;6.00;;
11771;SDS011;12556;55.748;13.194;2023-04-25T08:53:41;15.67;;;5.03;;
11771;SDS011;12556;55.748;13.194;2023-04-25T08:56:10;14.27;;;4.97;;
11771;SDS011;12556;55.748;13.194;2023-04-25T08:58:42;14.07;;;6.03;;
11771;SDS011;12556;55.748;13.194;2023-04-25T09:01:11;24.90;;;5.90;;
11771;SDS011;12556;55.748;13.194;2023-04-25T09:03:37;13.43;;;4.63;;
11771;SDS011;12556;55.748;13.194;2023-04-25T09:06:06;13.57;;;5.10;;
11771;SDS011;12556;55.748;13.194;2023-04-25T09:08:35;15.20;;;5.00;;
11771;SDS011;12556;55.748;13.194;2023-04-25T09:11:02;14.67;;;5.20;;
11771;SDS011;12556;55.748;13.194;2023-04-25T09:13:30;16.03;;;5.80;;
11771;SDS011;12556;55.748;13.194;2023-04-25T09:15:57;22.63;;;5.73;;
11771;SDS011;12556;55.748;13.194;2023-04-25T09:18:25;12.33;;;4.80;;
11771;SDS011;12556;55.748;13.194;2023-04-25T09:20:55;15.77;;;4.87;;
11771;SDS011;12556;55.748;13.194;2023-04-25T09:23:23;14.10;;;4.67;;
11771;SDS011;12556;55.748;13.194;2023-04-25T09:25:51;15.00;;;5.70;;
11771;SDS011;12556;55.748;13.194;2023-04-25T09:28:23;15.53;;;5.20;;
11771;SDS011;12556;55.748;13.194;2023-04-25T09:30:54;15.73;;;4.90;;
11771;SDS011;12556;55.748;13.194;2023-04-25T09:33:26;13.27;;;4.80;;
11771;SDS011;12556;55.748;13.194;2023-04-25T09:36:01;17.83;;;4.93;;
11771;SDS011;12556;55.748;13.194;2023-04-25T09:38:30;13.50;;;4.07;;
11771;SDS011;12556;55.748;13.194;2023-04-25T09:40:58;14.43;;;3.53;;
11771;SDS011;12556;55.748;13.194;2023-04-25T09:43:25;9.33;;;3.73;;
11771;SDS011;12556;55.748;13.194;2023-04-25T09:45:53;10.37;;;4.00;;
11771;SDS011;12556;55.748;13.194;2023-04-25T09:48:24;17.53;;;4.00;;
11771;SDS011;12556;55.748;13.194;2023-04-25T09:51:06;12.20;;;4.07;;
11771;SDS011;12556;55.748;13.194;2023-04-25T09:53:34;9.17;;;3.93;;
11771;SDS011;12556;55.748;13.194;2023-04-25T09:56:03;10.20;;;3.80;;
11771;SDS011;12556;55.748;13.194;2023-04-25T09:58:32;11.17;;;4.03;;
11771;SDS011;12556;55.748;13.194;2023-04-25T10:01:00;9.70;;;4.30;;
11771;SDS011;12556;55.748;13.194;2023-04-25T10:03:29;12.50;;;4.80;;
11771;SDS011;12556;55.748;13.194;2023-04-25T10:05:58;11.83;;;4.80;;
11771;SDS011;12556;55.748;13.194;2023-04-25T10:08:30;9.77;;;3.87;;
11771;SDS011;12556;55.748;13.194;2023-04-25T10:10:59;12.33;;;4.20;;
11771;SDS011;12556;55.748;13.194;2023-04-25T10:13:28;19.27;;;4.90;;
11771;SDS011;12556;55.748;13.194;2023-04-25T10:15:56;12.97;;;3.80;;
11771;SDS011;12556;55.748;13.194;2023-04-25T10:18:24;9.23;;;3.93;;
11771;SDS011;12556;55.748;13.194;2023-04-25T10:20:53;14.90;;;4.47;;
11771;SDS011;12556;55.748;13.194;2023-04-25T10:23:21;10.43;;;4.20;;
11771;SDS011;12556;55.748;13.194;2023-04-25T10:25:50;12.17;;;4.10;;
11771;SDS011;12556;55.748;13.194;2023-04-25T10:28:18;15.27;;;4.33;;
11771;SDS011;12556;55.748;13.194;2023-04-25T10:30:58;13.60;;;4.00;;
11771;SDS011;12556;55.748;13.194;2023-04-25T10:33:34;11.00;;;4.03;;
11771;SDS011;12556;55.748;13.194;2023-04-25T10:36:11;8.87;;;3.90;;
11771;SDS011;12556;55.748;13.194;2023-04-25T10:38:39;12.77;;;4.20;;
11771;SDS011;12556;55.748;13.194;2023-04-25T10:41:09;17.93;;;4.33;;
11771;SDS011;12556;55.748;13.194;2023-04-25T10:43:37;15.63;;;4.37;;
11771;SDS011;12556;55.748;13.194;2023-04-25T10:48:51;10.50;;;4.63;;
11771;SDS011;12556;55.748;13.194;2023-04-25T10:51:21;10.33;;;4.20;;
11771;SDS011;12556;55.748;13.194;2023-04-25T10:53:58;12.23;;;4.50;;
11771;SDS011;12556;55.748;13.194;2023-04-25T10:56:28;17.80;;;4.80;;
11771;SDS011;12556;55.748;13.194;2023-04-25T10:59:03;12.70;;;4.13;;
11771;SDS011;12556;55.748;13.194;2023-04-25T11:01:36;11.20;;;4.40;;
11771;SDS011;12556;55.748;13.194;2023-04-25T11:04:04;14.37;;;4.63;;
11771;SDS011;12556;55.748;13.194;2023-04-25T11:06:34;18.70;;;4.70;;
11771;SDS011;12556;55.748;13.194;2023-04-25T11:09:11;15.63;;;4.10;;
11771;SDS011;12556;55.748;13.194;2023-04-25T11:11:40;12.13;;;4.73;;
11771;SDS011;12556;55.748;13.194;2023-04-25T11:14:07;15.37;;;4.57;;
11771;SDS011;12556;55.748;13.194;2023-04-25T11:16:34;20.50;;;4.90;;
11771;SDS011;12556;55.748;13.194;2023-04-25T11:19:02;14.17;;;4.50;;
11771;SDS011;12556;55.748;13.194;2023-04-25T11:21:30;13.27;;;4.77;;
11771;SDS011;12556;55.748;13.194;2023-04-25T11:23:58;14.00;;;4.10;;
11771;SDS011;12556;55.748;13.194;2023-04-25T11:26:25;13.57;;;3.83;;
11771;SDS011;12556;55.748;13.194;2023-04-25T11:28:58;14.50;;;4.20;;
11771;SDS011;12556;55.748;13.194;2023-04-25T11:31:25;11.80;;;4.23;;
11771;SDS011;12556;55.748;13.194;2023-04-25T11:33:52;13.47;;;4.00;;
11771;SDS011;12556;55.748;13.194;2023-04-25T11:36:20;17.40;;;4.63;;
11771;SDS011;12556;55.748;13.194;2023-04-25T11:38:48;12.63;;;3.73;;
11771;SDS011;12556;55.748;13.194;2023-04-25T11:41:16;11.33;;;4.67;;
11771;SDS011;12556;55.748;13.194;2023-04-25T11:43:43;10.83;;;3.47;;
11771;SDS011;12556;55.748;13.194;2023-04-25T11:46:12;14.40;;;4.07;;
11771;SDS011;12556;55.748;13.194;2023-04-25T11:48:38;14.80;;;3.80;;
11771;SDS011;12556;55.748;13.194;2023-04-25T11:51:06;14.83;;;4.40;;
11771;SDS011;12556;55.748;13.194;2023-04-25T11:53:33;11.00;;;3.70;;
11771;SDS011;12556;55.748;13.194;2023-04-25T11:56:00;14.33;;;3.93;;
11771;SDS011;12556;55.748;13.194;2023-04-25T11:58:27;6.00;;;3.47;;
11771;SDS011;12556;55.748;13.194;2023-04-25T12:00:55;13.77;;;3.40;;
11771;SDS011;12556;55.748;13.194;2023-04-25T12:03:25;9.93;;;3.63;;
11771;SDS011;12556;55.748;13.194;2023-04-25T12:06:01;11.40;;;4.00;;
11771;SDS011;12556;55.748;13.194;2023-04-25T12:08:29;16.07;;;4.20;;
11771;SDS011;12556;55.748;13.194;2023-04-25T12:10:56;16.30;;;3.53;;
11771;SDS011;12556;55.748;13.194;2023-04-25T12:13:24;10.40;;;3.00;;
11771;SDS011;12556;55.748;13.194;2023-04-25T12:15:53;9.47;;;3.63;;
11771;SDS011;12556;55.748;13.194;2023-04-25T12:18:22;13.00;;;3.53;;
11771;SDS011;12556;55.748;13.194;2023-04-25T12:20:53;7.53;;;2.87;;
11771;SDS011;12556;55.748;13.194;2023-04-25T12:23:24;15.33;;;4.00;;
11771;SDS011;12556;55.748;13.194;2023-04-25T12:25:52;12.40;;;3.90;;
11771;SDS011;12556;55.748;13.194;2023-04-25T12:28:21;13.63;;;3.97;;
11771;SDS011;12556;55.748;13.194;2023-04-25T12:30:53;8.90;;;3.80;;
11771;SDS011;12556;55.748;13.194;2023-04-25T12:33:21;13.53;;;4.27;;
11771;SDS011;12556;55.748;13.194;2023-04-25T12:35:48;9.33;;;3.77;;
11771;SDS011;12556;55.748;13.194;2023-04-25T12:38:21;9.03;;;3.27;;
11771;SDS011;12556;55.748;13.194;2023-04-25T12:40:49;8.20;;;3.33;;
11771;SDS011;12556;55.748;13.194;2023-04-25T12:43:16;12.63;;;3.83;;
11771;SDS011;12556;55.748;13.194;2023-04-25T12:45:43;12.07;;;3.50;;
11771;SDS011;12556;55.748;13.194;2023-04-25T12:48:10;10.10;;;3.50;;
11771;SDS011;12556;55.748;13.194;2023-04-25T12:50:37;6.67;;;3.20;;
11771;SDS011;12556;55.748;13.194;2023-04-25T12:53:04;14.67;;;4.07;;
11771;SDS011;12556;55.748;13.194;2023-04-25T12:55:32;13.83;;;3.70;;
11771;SDS011;12556;55.748;13.194;2023-04-25T12:57:59;8.97;;;3.70;;
11771;SDS011;12556;55.748;13.194;2023-04-25T13:00:26;10.73;;;3.30;;
11771;SDS011;12556;55.748;13.194;2023-04-25T13:02:53;13.93;;;3.60;;
11771;SDS011;12556;55.748;13.194;2023-04-25T13:05:20;10.13;;;3.67;;
11771;SDS011;12556;55.748;13.194;2023-04-25T13:07:46;9.40;;;4.03;;
11771;SDS011;12556;55.748;13.194;2023-04-25T13:10:13;13.13;;;3.57;;
11771;SDS011;12556;55.748;13.194;2023-04-25T13:12:42;12.13;;;3.77;;
11771;SDS011;12556;55.748;13.194;2023-04-25T13:15:09;12.93;;;3.50;;
11771;SDS011;12556;55.748;13.194;2023-04-25T13:17:37;10.70;;;3.50;;
11771;SDS011;12556;55.748;13.194;2023-04-25T13:20:05;9.83;;;4.07;;
11771;SDS011;12556;55.748;13.194;2023-04-25T13:22:34;10.40;;;3.13;;
11771;SDS011;12556;55.748;13.194;2023-04-25T13:25:02;7.00;;;3.07;;
11771;SDS011;12556;55.748;13.194;2023-04-25T13:27:30;8.03;;;3.23;;
11771;SDS011;12556;55.748;13.194;2023-04-25T13:30:00;9.60;;;3.13;;
11771;SDS011;12556;55.748;13.194;2023-04-25T13:32:32;9.40;;;3.20;;
11771;SDS011;12556;55.748;13.194;2023-04-25T13:34:59;12.80;;;3.50;;
11771;SDS011;12556;55.748;13.194;2023-04-25T13:37:26;9.23;;;3.63;;
11771;SDS011;12556;55.748;13.194;2023-04-25T13:39:53;9.13;;;2.57;;
11771;SDS011;12556;55.748;13.194;2023-04-25T13:42:20;6.40;;;2.63;;
11771;SDS011;12556;55.748;13.194;2023-04-25T13:44:47;6.73;;;3.00;;
11771;SDS011;12556;55.748;13.194;2023-04-25T13:47:15;11.33;;;3.17;;
11771;SDS011;12556;55.748;13.194;2023-04-25T13:49:42;6.87;;;2.40;;
11771;SDS011;12556;55.748;13.194;2023-04-25T13:52:09;6.13;;;2.73;;
11771;SDS011;12556;55.748;13.194;2023-04-25T13:54:36;9.67;;;2.57;;
11771;SDS011;12556;55.748;13.194;2023-04-25T13:57:03;4.03;;;2.67;;
11771;SDS011;12556;55.748;13.194;2023-04-25T13:59:30;9.03;;;3.03;;
11771;SDS011;12556;55.748;13.194;2023-04-25T14:01:57;7.73;;;2.73;;
11771;SDS011;12556;55.748;13.194;2023-04-25T14:04:25;8.90;;;2.53;;
11771;SDS011;12556;55.748;13.194;2023-04-25T14:06:52;7.00;;;2.30;;
11771;SDS011;12556;55.748;13.194;2023-04-25T14:09:20;8.23;;;2.73;;
11771;SDS011;12556;55.748;13.194;2023-04-25T14:11:50;7.10;;;2.77;;
11771;SDS011;12556;55.748;13.194;2023-04-25T14:14:17;8.63;;;2.90;;
11771;SDS011;12556;55.748;13.194;2023-04-25T14:16:44;11.00;;;2.60;;
11771;SDS011;12556;55.748;13.194;2023-04-25T14:19:13;9.47;;;2.70;;
11771;SDS011;12556;55.748;13.194;2023-04-25T14:21:41;23.83;;;3.17;;
11771;SDS011;12556;55.748;13.194;2023-04-25T14:24:09;9.50;;;3.70;;
11771;SDS011;12556;55.748;13.194;2023-04-25T14:26:37;8.90;;;2.80;;
11771;SDS011;12556;55.748;13.194;2023-04-25T14:29:04;10.27;;;2.70;;
11771;SDS011;12556;55.748;13.194;2023-04-25T14:31:32;12.13;;;2.87;;
11771;SDS011;12556;55.748;13.194;2023-04-25T14:33:59;8.60;;;2.80;;